createdAt,value
2023-01-19T00:00:12.739Z,100012.09
2023-01-19T00:02:39.427Z,100006.06
2023-01-19T00:05:07.860Z,100012.28
2023-01-19T00:07:34.519Z,100012.38
2023-01-19T00:10:01.097Z,100017.75
2023-01-19T00:12:27.787Z,100016.13
2023-01-19T00:14:54.523Z,100027.72
2023-01-19T00:17:21.125Z,100027.91
2023-01-19T00:19:47.863Z,100023.63
2023-01-19T00:22:15.850Z,100031.75
2023-01-19T00:24:42.589Z,100023.88
2023-01-19T00:27:09.216Z,100027.56
2023-01-19T00:29:35.790Z,100019.72
2023-01-19T00:32:03.892Z,100033.00
2023-01-19T00:34:30.967Z,100033.09
2023-01-19T00:36:57.609Z,100037.59
2023-01-19T00:39:25.598Z,100028.94
2023-01-19T00:41:52.183Z,100031.56
2023-01-19T00:44:18.864Z,100036.00
2023-01-19T00:46:45.415Z,100034.22
2023-01-19T00:49:12.234Z,100037.78
2023-01-19T00:51:38.822Z,100029.94
2023-01-19T00:54:05.517Z,100036.19
2023-01-19T00:56:33.678Z,100040.59
2023-01-19T00:59:00.347Z,100037.09
2023-01-19T01:01:45.626Z,100048.53
2023-01-19T01:04:12.882Z,100049.47
2023-01-19T01:06:39.543Z,100044.34
2023-01-19T01:09:06.333Z,100047.75
2023-01-19T01:11:34.359Z,100048.53
2023-01-19T01:14:00.971Z,100050.22
2023-01-19T01:16:27.705Z,100053.81
2023-01-19T01:18:54.392Z,100058.91
2023-01-19T01:21:20.936Z,100064.22
2023-01-19T01:23:47.548Z,100073.75
2023-01-19T01:26:14.164Z,100065.81
2023-01-19T01:28:42.194Z,100071.19
2023-01-19T01:31:08.751Z,100059.78
2023-01-19T01:33:40.925Z,100067.78
2023-01-19T01:36:09.076Z,100070.53
2023-01-19T01:38:35.739Z,100075.88
2023-01-19T01:41:02.397Z,100069.75
2023-01-19T01:43:44.365Z,100075.94
2023-01-19T01:46:11.849Z,100078.69
2023-01-19T01:48:40.296Z,100081.34
2023-01-19T01:51:09.177Z,100080.56
2023-01-19T01:53:37.420Z,100070.16
2023-01-19T01:56:09.672Z,100065.88
2023-01-19T01:58:37.771Z,100066.91
2023-01-19T02:01:07.292Z,100072.19
2023-01-19T02:03:34.042Z,100071.34
2023-01-19T02:06:04.335Z,100069.63
2023-01-19T02:08:35.402Z,100067.91
2023-01-19T02:11:03.327Z,100072.38
2023-01-19T02:13:32.900Z,100058.31
2023-01-19T02:16:02.692Z,100062.78
2023-01-19T02:18:32.151Z,100061.94
2023-01-19T02:21:08.130Z,100069.09
2023-01-19T02:23:42.697Z,100064.75
2023-01-19T02:26:11.956Z,100069.25
2023-01-19T02:28:41.578Z,100062.28
2023-01-19T02:31:08.206Z,100062.28
2023-01-19T02:33:34.957Z,100061.44
2023-01-19T02:36:02.158Z,100065.84
2023-01-19T02:38:30.286Z,100064.13
2023-01-19T02:41:01.043Z,100060.75
2023-01-19T02:43:28.824Z,100059.88
2023-01-19T02:45:55.557Z,100065.16
2023-01-19T02:48:22.310Z,100065.25
2023-01-19T02:50:51.146Z,100074.19
2023-01-19T02:53:47.857Z,100075.03
2023-01-19T02:56:37.103Z,100082.00
2023-01-19T02:59:10.671Z,100080.31
2023-01-19T03:01:48.590Z,100074.19
2023-01-19T03:04:27.126Z,100067.19
2023-01-19T03:07:02.712Z,100067.25
2023-01-19T03:09:35.289Z,100067.38
2023-01-19T03:12:09.236Z,100067.38
2023-01-19T03:14:42.191Z,100065.53
2023-01-19T03:17:12.378Z,100061.22
2023-01-19T03:19:41.378Z,100059.50
2023-01-19T03:22:13.247Z,100060.44
2023-01-19T03:24:42.672Z,100066.66
2023-01-19T03:27:14.831Z,100070.13
2023-01-19T03:29:45.565Z,100073.63
2023-01-19T03:32:17.711Z,100074.56
2023-01-19T03:34:46.787Z,100078.00
2023-01-19T03:37:16.286Z,100076.22
2023-01-19T03:39:43.277Z,100076.09
2023-01-19T03:42:14.216Z,100078.75
2023-01-19T03:44:42.940Z,100076.09
2023-01-19T03:47:11.565Z,100075.19
2023-01-19T03:49:41.435Z,100066.41
2023-01-19T03:52:08.193Z,100067.38
2023-01-19T03:54:34.870Z,100071.69
2023-01-19T03:57:01.514Z,100066.50
2023-01-19T03:59:29.489Z,100069.91
2023-01-19T04:01:56.151Z,100068.19
2023-01-19T04:04:22.840Z,100072.53
2023-01-19T04:06:49.483Z,100068.97
2023-01-19T04:09:17.520Z,100076.91
2023-01-19T04:11:45.181Z,100069.84
2023-01-19T04:14:11.760Z,100074.31
2023-01-19T04:16:39.724Z,100066.34
2023-01-19T04:19:06.259Z,100062.84
2023-01-19T04:21:33.120Z,100062.91
2023-01-19T04:23:59.717Z,100062.84
2023-01-19T04:26:26.389Z,100061.06
2023-01-19T04:28:52.979Z,100057.47
2023-01-19T04:31:19.694Z,100055.69
2023-01-19T04:33:47.703Z,100057.31
2023-01-19T04:36:14.318Z,100059.78
2023-01-19T04:38:40.953Z,100059.72
2023-01-19T04:41:07.564Z,100060.50
2023-01-19T04:43:34.274Z,100052.47
2023-01-19T04:46:00.883Z,100058.53
2023-01-19T04:48:27.489Z,100076.09
2023-01-19T04:50:55.457Z,100073.38
2023-01-19T04:53:22.076Z,100076.78
2023-01-19T04:55:53.048Z,100076.78
2023-01-19T04:58:19.698Z,100078.47
2023-01-19T05:00:46.428Z,100089.91
2023-01-19T05:03:13.106Z,100086.41
2023-01-19T05:05:39.918Z,100080.28
2023-01-19T05:08:07.934Z,100083.94
2023-01-19T05:10:34.531Z,100079.69
2023-01-19T05:13:01.485Z,100087.59
2023-01-19T05:15:28.284Z,100093.81
2023-01-19T05:17:54.941Z,100096.38
2023-01-19T05:20:21.567Z,100102.53
2023-01-19T05:22:51.970Z,100105.16
2023-01-19T05:25:20.376Z,100102.59
2023-01-19T05:27:47.048Z,100104.38
2023-01-19T05:30:14.295Z,100103.44
2023-01-19T05:32:40.941Z,100118.44
2023-01-19T05:35:08.804Z,100120.22
2023-01-19T05:37:35.443Z,100124.47
2023-01-19T05:40:02.120Z,100114.00
2023-01-19T05:42:32.085Z,100109.66
2023-01-19T05:44:59.623Z,100110.59
2023-01-19T05:47:26.620Z,100107.94
2023-01-19T05:49:53.247Z,100107.09
2023-01-19T05:52:19.972Z,100113.22
2023-01-19T05:54:46.591Z,100111.44
2023-01-19T05:57:13.219Z,100110.59
2023-01-19T05:59:41.191Z,100117.66
2023-01-19T06:02:07.928Z,100120.28
2023-01-19T06:04:34.605Z,100120.38
2023-01-19T06:07:01.197Z,100119.53
2023-01-19T06:09:28.036Z,100122.19
2023-01-19T06:11:54.698Z,100123.97
2023-01-19T06:14:21.325Z,100117.75
2023-01-19T06:16:49.329Z,100122.06
2023-01-19T06:19:15.983Z,100125.50
2023-01-19T06:21:42.580Z,100131.72
2023-01-19T06:24:09.628Z,100129.94
2023-01-19T06:26:36.235Z,100134.34
2023-01-19T06:29:02.941Z,100134.34
2023-01-19T06:31:29.573Z,100140.50
2023-01-19T06:33:57.535Z,100135.28
2023-01-19T06:36:24.111Z,100135.22
2023-01-19T06:38:50.663Z,100139.50
2023-01-19T06:41:17.285Z,100141.19
2023-01-19T06:43:43.818Z,100146.31
2023-01-19T06:46:10.456Z,100144.50
2023-01-19T06:48:37.040Z,100147.09
2023-01-19T06:51:05.653Z,100152.31
2023-01-19T06:53:32.321Z,100149.56
2023-01-19T06:55:59.794Z,100153.06
2023-01-19T06:58:27.109Z,100156.56
2023-01-19T07:00:53.821Z,100149.56
2023-01-19T07:03:22.322Z,100155.81
2023-01-19T07:05:52.017Z,100160.97
2023-01-19T07:08:19.983Z,100167.13
2023-01-19T07:11:25.691Z,100173.34
2023-01-19T07:13:34.240Z,100169.00
2023-01-19T07:16:04.347Z,100170.84
2023-01-19T07:18:30.949Z,100175.28
2023-01-19T07:20:57.579Z,100179.72
2023-01-19T07:23:25.659Z,100166.59
2023-01-19T07:25:52.323Z,100172.75
2023-01-19T07:28:18.960Z,100174.53
2023-01-19T07:30:45.763Z,100176.31
2023-01-19T07:33:12.614Z,100178.16
2023-01-19T07:35:39.228Z,100180.81
2023-01-19T07:38:05.852Z,100176.31
2023-01-19T07:40:33.852Z,100180.66
2023-01-19T07:43:00.874Z,100186.78
2023-01-19T07:45:28.080Z,100190.28
2023-01-19T07:47:54.699Z,100186.72
2023-01-19T07:50:21.526Z,100191.94
2023-01-19T07:52:48.127Z,100194.47
2023-01-19T07:55:14.803Z,100198.75
2023-01-19T07:57:42.779Z,100194.16
2023-01-19T08:00:11.883Z,100201.91
2023-01-19T08:02:38.711Z,100204.34
2023-01-19T08:05:06.090Z,100210.31
2023-01-19T08:07:33.695Z,100206.72
2023-01-19T08:10:00.279Z,100208.28
2023-01-19T08:12:26.940Z,100194.94
2023-01-19T08:14:54.951Z,100202.69
2023-01-19T08:17:21.538Z,100201.59
2023-01-19T08:19:48.166Z,100207.50
2023-01-19T08:22:14.761Z,100208.19
2023-01-19T08:24:41.347Z,100209.72
2023-01-19T08:27:08.051Z,100206.84
2023-01-19T08:29:34.728Z,100203.09
2023-01-19T08:32:02.787Z,100208.91
2023-01-19T08:34:29.745Z,100206.78
2023-01-19T08:36:56.472Z,100206.34
2023-01-19T08:39:23.035Z,100208.69
2023-01-19T08:41:49.719Z,100209.97
2023-01-19T08:44:16.359Z,100216.63
2023-01-19T08:46:43.057Z,100216.22
2023-01-19T08:49:11.239Z,100210.50
2023-01-19T08:51:38.023Z,100215.44
2023-01-19T08:54:05.024Z,100215.78
2023-01-19T08:56:31.696Z,100219.69
2023-01-19T08:59:08.668Z,100221.94
2023-01-19T09:01:36.723Z,100223.03
2023-01-19T09:04:03.662Z,100213.69
2023-01-19T09:06:31.678Z,100216.56
2023-01-19T09:08:58.295Z,100219.44
2023-01-19T09:11:24.885Z,100224.09
2023-01-19T09:13:51.561Z,100223.47
2023-01-19T09:16:18.417Z,100228.91
2023-01-19T09:18:45.071Z,100228.16
2023-01-19T09:21:11.704Z,100225.53
2023-01-19T09:23:39.697Z,100217.75
2023-01-19T09:26:07.498Z,100222.34
2023-01-19T09:28:34.309Z,100220.78
2023-01-19T09:31:05.209Z,100215.69
2023-01-19T09:33:31.932Z,100216.91
2023-01-19T09:35:58.629Z,100211.09
2023-01-19T09:38:25.199Z,100213.19
2023-01-19T09:40:55.826Z,100220.56
2023-01-19T09:43:35.136Z,100219.13
2023-01-19T09:46:03.692Z,100215.94
2023-01-19T09:48:45.244Z,100213.66
2023-01-19T09:51:15.504Z,100215.69
2023-01-19T09:53:54.667Z,100208.94
2023-01-19T09:56:23.621Z,100208.31
2023-01-19T09:58:51.589Z,100200.59
2023-01-19T10:01:46.745Z,100213.91
2023-01-19T10:04:31.916Z,100214.56
2023-01-19T10:07:30.073Z,100213.84
2023-01-19T10:10:12.099Z,100207.78
2023-01-19T10:13:11.067Z,100206.28
2023-01-19T10:15:54.950Z,100202.28
2023-01-19T10:18:24.604Z,100203.75
2023-01-19T10:20:56.242Z,100203.44
2023-01-19T10:23:34.720Z,100205.78
2023-01-19T10:26:05.795Z,100201.00
2023-01-19T10:28:33.082Z,100208.75
2023-01-19T10:31:01.363Z,100206.72
2023-01-19T10:33:28.722Z,100202.88
2023-01-19T10:35:55.369Z,100203.31
2023-01-19T10:38:22.206Z,100189.53
2023-01-19T10:40:55.070Z,100195.50
2023-01-19T10:43:43.377Z,100192.72
2023-01-19T10:46:21.931Z,100188.34
2023-01-19T10:48:50.864Z,100189.13
2023-01-19T10:51:17.809Z,100194.44
2023-01-19T10:53:55.578Z,100196.25
2023-01-19T10:56:24.501Z,100189.13
2023-01-19T10:58:51.825Z,100194.22
2023-01-19T11:01:21.757Z,100185.91
2023-01-19T11:03:49.062Z,100186.53
2023-01-19T11:06:27.519Z,100189.81
2023-01-19T11:09:10.251Z,100182.22
2023-01-19T11:11:43.596Z,100176.66
2023-01-19T11:14:11.331Z,100170.06
2023-01-19T11:16:39.812Z,100173.97
2023-01-19T11:19:17.237Z,100166.47
2023-01-19T11:21:43.863Z,100170.75
2023-01-19T11:24:11.248Z,100165.19
2023-01-19T11:26:41.425Z,100164.84
2023-01-19T11:29:17.528Z,100160.13
2023-01-19T11:31:45.969Z,100153.59
2023-01-19T11:34:32.141Z,100152.41
2023-01-19T11:37:00.841Z,100148.53
2023-01-19T11:39:29.286Z,100145.66
2023-01-19T11:41:58.565Z,100140.00
2023-01-19T11:44:30.378Z,100143.97
2023-01-19T11:47:00.135Z,100148.97
2023-01-19T11:49:36.891Z,100148.53
2023-01-19T11:52:06.467Z,100153.50
2023-01-19T11:54:37.106Z,100153.25
2023-01-19T11:57:12.199Z,100149.38
2023-01-19T11:59:38.996Z,100151.72
2023-01-19T12:02:18.846Z,100147.22
2023-01-19T12:04:47.595Z,100136.19
2023-01-19T12:07:18.400Z,100143.84
2023-01-19T12:09:48.955Z,100143.59
2023-01-19T12:12:26.806Z,100140.56
2023-01-19T12:14:59.618Z,100142.91
2023-01-19T12:17:31.121Z,100147.03
2023-01-19T12:20:05.780Z,100146.78
2023-01-19T12:22:42.716Z,100151.91
2023-01-19T12:25:20.120Z,100142.94
2023-01-19T12:27:48.752Z,100147.16
2023-01-19T12:30:21.368Z,100147.06
2023-01-19T12:32:49.804Z,100147.75
2023-01-19T12:35:53.854Z,100145.84
2023-01-19T12:38:33.257Z,100150.94
2023-01-19T12:41:20.453Z,100154.56
2023-01-19T12:43:47.376Z,100153.59
2023-01-19T12:46:27.663Z,100153.59
2023-01-19T12:49:03.971Z,100150.94
2023-01-19T12:51:30.963Z,100148.16
2023-01-19T12:53:58.796Z,100143.66
2023-01-19T12:56:32.067Z,100148.00
2023-01-19T12:58:58.876Z,100160.41
2023-01-19T13:01:25.928Z,100154.94
2023-01-19T13:04:02.459Z,100156.75
2023-01-19T13:07:09.357Z,100161.97
2023-01-19T13:09:38.023Z,100164.41
2023-01-19T13:12:21.971Z,100173.03
2023-01-19T13:14:48.754Z,100175.59
2023-01-19T13:17:33.984Z,100172.06
2023-01-19T13:20:18.730Z,100177.28
2023-01-19T13:23:13.299Z,100179.72
2023-01-19T13:25:41.174Z,100184.72
2023-01-19T13:28:10.124Z,100184.34
2023-01-19T13:30:51.224Z,100185.06
2023-01-19T13:33:21.545Z,100185.91
2023-01-19T13:35:53.767Z,100186.03
2023-01-19T13:38:22.402Z,100182.50
2023-01-19T13:40:49.726Z,100186.03
2023-01-19T13:43:21.158Z,100186.16
2023-01-19T13:45:52.412Z,100189.78
2023-01-19T13:48:22.071Z,100198.06
2023-01-19T13:51:01.933Z,100198.19
2023-01-19T13:53:28.656Z,100200.25
2023-01-19T13:56:17.640Z,100206.53
2023-01-19T13:58:56.620Z,100204.84
2023-01-19T14:01:23.909Z,100207.75
2023-01-19T14:03:51.009Z,100211.28
2023-01-19T14:06:29.266Z,100210.69
2023-01-19T14:09:15.926Z,100214.41
2023-01-19T14:11:42.833Z,100218.06
2023-01-19T14:14:23.419Z,100216.47
2023-01-19T14:16:50.140Z,100223.78
2023-01-19T14:19:16.757Z,100236.38
2023-01-19T14:21:44.732Z,100229.34
2023-01-19T14:24:17.779Z,100233.97
2023-01-19T14:26:46.996Z,100234.06
2023-01-19T14:29:26.064Z,100227.03
2023-01-19T14:32:05.681Z,100228.13
2023-01-19T14:34:34.547Z,100229.09
2023-01-19T14:37:05.041Z,100235.53
2023-01-19T14:39:34.648Z,100228.59
2023-01-19T14:42:05.905Z,100233.19
2023-01-19T14:44:35.493Z,100223.59
2023-01-19T14:47:03.081Z,100229.06
2023-01-19T14:49:33.786Z,100234.63
2023-01-19T14:52:05.174Z,100232.19
2023-01-19T14:54:35.858Z,100236.81
2023-01-19T14:57:02.413Z,100235.09
2023-01-19T14:59:29.110Z,100236.16
2023-01-19T15:01:55.865Z,100242.50
2023-01-19T15:04:22.586Z,100234.59
2023-01-19T15:06:49.474Z,100242.72
2023-01-19T15:09:17.798Z,100244.53
2023-01-19T15:11:47.412Z,100242.84
2023-01-19T15:14:15.311Z,100243.81
2023-01-19T15:16:42.646Z,100250.09
2023-01-19T15:19:11.781Z,100255.69
2023-01-19T15:21:38.435Z,100252.25
2023-01-19T15:24:05.351Z,100254.22
2023-01-19T15:26:33.493Z,100257.84
2023-01-19T15:29:00.105Z,100251.75
2023-01-19T15:31:26.816Z,100261.59
2023-01-19T15:33:53.462Z,100254.66
2023-01-19T15:36:22.084Z,100258.28
2023-01-19T15:38:48.752Z,100262.03
2023-01-19T15:41:23.083Z,100260.34
2023-01-19T15:43:51.567Z,100258.00
2023-01-19T15:46:19.727Z,100261.75
2023-01-19T15:48:46.521Z,100267.31
2023-01-19T15:51:14.271Z,100266.59
2023-01-19T15:53:42.074Z,100268.63
2023-01-19T15:56:14.701Z,100269.69
2023-01-19T15:58:41.610Z,100270.78
2023-01-19T16:01:12.842Z,100273.69
2023-01-19T16:03:40.056Z,100274.88
2023-01-19T16:06:07.520Z,100272.31
2023-01-19T16:08:34.233Z,100271.69
2023-01-19T16:11:04.104Z,100269.13
2023-01-19T16:13:30.939Z,100273.72
2023-01-19T16:16:02.211Z,100273.94
2023-01-19T16:18:30.778Z,100274.88
2023-01-19T16:20:57.393Z,100275.97
2023-01-19T16:23:24.134Z,100275.97
2023-01-19T16:25:58.515Z,100284.91
2023-01-19T16:28:26.431Z,100281.31
2023-01-19T16:30:53.396Z,100290.25
2023-01-19T16:33:20.044Z,100281.31
2023-01-19T16:35:48.302Z,100286.63
2023-01-19T16:38:14.948Z,100286.63
2023-01-19T16:40:43.831Z,100289.41
2023-01-19T16:43:10.469Z,100287.59
2023-01-19T16:45:55.309Z,100294.72
2023-01-19T16:48:21.936Z,100295.59
2023-01-19T16:50:57.917Z,100296.34
2023-01-19T16:53:24.482Z,100293.69
2023-01-19T16:55:51.090Z,100295.38
2023-01-19T16:58:17.846Z,100299.72
2023-01-19T17:00:44.548Z,100301.44
2023-01-19T17:03:11.334Z,100297.91
2023-01-19T17:05:38.109Z,100306.78
2023-01-19T17:08:06.217Z,100306.78
2023-01-19T17:10:36.290Z,100300.50
2023-01-19T17:13:02.885Z,100306.69
2023-01-19T17:15:30.395Z,100312.88
2023-01-19T17:17:57.168Z,100305.81
2023-01-19T17:20:23.744Z,100307.63
2023-01-19T17:22:50.338Z,100317.44
2023-01-19T17:25:18.419Z,100321.06
2023-01-19T17:27:44.972Z,100315.63
2023-01-19T17:30:12.241Z,100307.72
2023-01-19T17:32:38.981Z,100312.97
2023-01-19T17:35:06.382Z,100312.88
2023-01-19T17:37:33.100Z,100318.19
2023-01-19T17:39:59.686Z,100311.06
2023-01-19T17:42:27.780Z,100310.31
2023-01-19T17:44:54.598Z,100312.09
2023-01-19T17:47:21.170Z,100313.06
2023-01-19T17:49:47.775Z,100318.28
2023-01-19T17:52:16.476Z,100312.09
2023-01-19T17:54:44.469Z,100310.31
2023-01-19T17:57:11.078Z,100313.81
2023-01-19T17:59:39.075Z,100318.19
2023-01-19T18:02:05.956Z,100325.22
2023-01-19T18:04:32.634Z,100323.53
2023-01-19T18:06:59.397Z,100321.81
2023-01-19T18:09:26.006Z,100326.19
2023-01-19T18:11:52.642Z,100329.59
2023-01-19T18:14:19.294Z,100336.72
2023-01-19T18:16:47.570Z,100337.59
2023-01-19T18:19:14.303Z,100333.97
2023-01-19T18:21:40.919Z,100339.19
2023-01-19T18:24:07.808Z,100347.19
2023-01-19T18:26:35.446Z,100349.88
2023-01-19T18:29:02.080Z,100348.88
2023-01-19T18:31:29.005Z,100348.78
2023-01-19T18:33:57.177Z,100349.63
2023-01-19T18:36:23.861Z,100350.50
2023-01-19T18:38:50.585Z,100353.16
2023-01-19T18:41:18.944Z,100358.38
2023-01-19T18:43:46.030Z,100362.88
2023-01-19T18:46:13.187Z,100356.56
2023-01-19T18:48:40.137Z,100360.94
2023-01-19T18:51:09.343Z,100359.97
2023-01-19T18:53:36.467Z,100371.50
2023-01-19T18:56:04.766Z,100364.34
2023-01-19T18:58:32.409Z,100371.50
2023-01-19T19:01:00.393Z,100375.75
2023-01-19T19:03:27.738Z,100383.66
2023-01-19T19:05:54.865Z,100384.50
2023-01-19T19:08:23.067Z,100379.91
2023-01-19T19:10:49.830Z,100380.75
2023-01-19T19:13:16.924Z,100388.75
2023-01-19T19:15:43.645Z,100387.81
2023-01-19T19:18:10.494Z,100388.66
2023-01-19T19:20:38.187Z,100399.19
2023-01-19T19:23:04.878Z,100396.53
2023-01-19T19:25:33.205Z,100401.78
2023-01-19T19:27:59.902Z,100400.81
2023-01-19T19:30:26.595Z,100409.69
2023-01-19T19:32:53.495Z,100414.88
2023-01-19T19:35:20.256Z,100412.97
2023-01-19T19:37:47.453Z,100411.16
2023-01-19T19:40:14.895Z,100416.38
2023-01-19T19:42:43.049Z,100419.03
2023-01-19T19:45:11.087Z,100430.56
2023-01-19T19:47:37.704Z,100432.28
2023-01-19T19:50:04.731Z,100428.66
2023-01-19T19:52:31.367Z,100428.66
2023-01-19T19:54:57.967Z,100433.13
2023-01-19T19:57:24.631Z,100425.97
2023-01-19T19:59:52.554Z,100435.69
2023-01-19T20:02:19.295Z,100437.38
2023-01-19T20:04:46.040Z,100441.84
2023-01-19T20:07:12.707Z,100450.84
2023-01-19T20:09:39.411Z,100452.75
2023-01-19T20:12:06.786Z,100460.03
2023-01-19T20:14:33.433Z,100451.28
2023-01-19T20:17:01.358Z,100453.22
2023-01-19T20:19:28.041Z,100460.47
2023-01-19T20:21:54.648Z,100450.00
2023-01-19T20:24:21.437Z,100451.91
2023-01-19T20:26:50.380Z,100458.22
2023-01-19T20:29:17.473Z,100466.44
2023-01-19T20:31:46.126Z,100470.81
2023-01-19T20:34:16.899Z,100471.78
2023-01-19T20:36:43.687Z,100476.25
2023-01-19T20:39:10.311Z,100483.28
2023-01-19T20:41:37.779Z,100491.22
2023-01-19T20:44:04.483Z,100485.00
2023-01-19T20:46:31.131Z,100486.72
2023-01-19T20:48:57.801Z,100489.41
2023-01-19T20:51:25.856Z,100491.22
2023-01-19T20:53:52.503Z,100496.53
2023-01-19T20:56:19.106Z,100498.22
2023-01-19T20:58:45.809Z,100496.53
2023-01-19T21:01:14.839Z,100500.06
2023-01-19T21:03:42.190Z,100499.94
2023-01-19T21:06:09.061Z,100503.47
2023-01-19T21:08:37.416Z,100512.22
2023-01-19T21:11:05.015Z,100510.41
2023-01-19T21:13:31.653Z,100522.75
2023-01-19T21:15:58.925Z,100527.16
2023-01-19T21:18:25.781Z,100526.19
2023-01-19T21:20:52.521Z,100527.91
2023-01-19T21:23:19.110Z,100539.41
2023-01-19T21:25:51.009Z,100530.44
2023-01-19T21:28:17.803Z,100534.94
2023-01-19T21:30:44.679Z,100540.16
2023-01-19T21:33:11.585Z,100540.16
2023-01-19T21:35:38.796Z,100540.06
2023-01-19T21:38:05.723Z,100546.13
2023-01-19T21:40:32.424Z,100546.91
2023-01-19T21:43:00.453Z,100558.44
2023-01-19T21:45:27.086Z,100552.13
2023-01-19T21:47:53.842Z,100557.34
2023-01-19T21:50:20.571Z,100565.34
2023-01-19T21:52:47.209Z,100571.66
2023-01-19T21:55:14.093Z,100568.03
2023-01-19T21:57:40.917Z,100577.75
2023-01-19T22:00:10.367Z,100586.47
2023-01-19T22:02:38.810Z,100576.78
2023-01-19T22:05:06.587Z,100582.13
2023-01-19T22:07:33.179Z,100590.13
2023-01-19T22:09:59.741Z,100595.56
2023-01-19T22:12:26.444Z,100600.03
2023-01-19T22:14:53.776Z,100602.63
2023-01-19T22:17:22.304Z,100598.16
2023-01-19T22:19:48.949Z,100606.03
2023-01-19T22:22:15.737Z,100599.63
2023-01-19T22:24:42.309Z,100610.31
2023-01-19T22:27:08.911Z,100607.63
2023-01-19T22:29:35.534Z,100602.31
2023-01-19T22:32:02.114Z,100610.31
2023-01-19T22:34:30.088Z,100616.50
2023-01-19T22:36:56.724Z,100610.31
2023-01-19T22:39:23.318Z,100620.84
2023-01-19T22:41:50.001Z,100624.38
2023-01-19T22:44:18.232Z,100630.59
2023-01-19T22:46:44.815Z,100632.28
2023-01-19T22:49:13.597Z,100639.44
2023-01-19T22:51:42.099Z,100635.81
2023-01-19T22:54:09.250Z,100645.50
2023-01-19T22:56:37.681Z,100641.16
2023-01-19T22:59:05.625Z,100650.84
2023-01-19T23:01:34.618Z,100650.84
2023-01-19T23:04:02.852Z,100649.16
2023-01-19T23:06:47.737Z,100649.16
2023-01-19T23:09:14.606Z,100650.03
2023-01-19T23:11:42.696Z,100650.13
2023-01-19T23:14:13.597Z,100652.78
2023-01-19T23:16:40.229Z,100658.13
2023-01-19T23:19:06.833Z,100659.94
2023-01-19T23:21:33.773Z,100657.28
2023-01-19T23:24:03.845Z,100668.81
2023-01-19T23:26:31.615Z,100674.13
2023-01-19T23:29:00.380Z,100666.88
2023-01-19T23:31:30.084Z,100680.97
2023-01-19T23:33:58.288Z,100666.78
2023-01-19T23:36:26.792Z,100685.44
2023-01-19T23:38:55.025Z,100680.97
2023-01-19T23:41:24.128Z,100684.59
2023-01-19T23:43:51.667Z,100677.53
2023-01-19T23:46:20.139Z,100682.88
2023-01-19T23:48:47.221Z,100689.19
2023-01-19T23:51:16.116Z,100688.44
2023-01-19T23:53:42.676Z,100691.00
2023-01-19T23:56:10.633Z,100688.34
2023-01-19T23:58:38.773Z,100686.53
